Hickory Valley, Louisiana
Current Conditions -  °F | °C
As of 12:15 AM on Friday 19 Dec 2014 (Local Time) from KRSN Reporting Station
Scattered Clouds Scattered Clouds  
Wind Chill:   Ceiling: Unl
Heat Index:   Visibility: 10mi
Dew Point:   Wind: 5mph
Humidity: 99%   Direction: 50°NE
Pressure: 30.19"   Gusts: NA
Location:  32.0547°N, 92.4144°W
Report Text: KRSN 190615Z AUTO 05004KT 10SM SCT024 SCT042 09/09 A3019 RMK AO2 T00860085
Loading
Personal Weather Stations






























Interactive Weather Map New forecast layout! Learn more

10-Day Weather Forecast

Advertisements
Track Severe Weather on mobile